Time;durP1;ratioP1;P1;durP2;ratioP2;P2;SDS_P1;SDS_P2;PMS_P1;PMS_P2;Temp;Humidity;BMP_temperature;BMP_pressure;BME280_temperature;BME280_humidity;BME280_pressure;Samples;Min_cycle;Max_cycle;Signal;HPM_P1;HPM_P2
2021/11/11 00:02:29;;;;;;;15.32;6.45;;;18.20;72.30;;;;;;4979796;28;96473;-58
2021/11/11 00:04:59;;;;;;;9.63;5.80;;;18.30;72.40;;;;;;4979747;28;95343;-63
2021/11/11 00:07:32;;;;;;;8.55;5.78;;;18.40;72.40;;;;;;4981071;28;95987;-55
2021/11/11 00:10:04;;;;;;;7.22;5.45;;;18.40;72.30;;;;;;4980122;28;96028;-62
2021/11/11 00:12:37;;;;;;;9.10;5.40;;;18.50;72.30;;;;;;4987840;28;96501;-58
2021/11/11 00:15:12;;;;;;;8.15;5.85;;;18.50;72.20;;;;;;4981911;28;95963;-62
2021/11/11 00:17:46;;;;;;;8.55;4.68;;;18.60;72.30;;;;;;4979937;28;97361;-52
2021/11/11 00:20:19;;;;;;;10.80;5.50;;;18.70;72.20;;;;;;4981973;28;95876;-63
2021/11/11 00:22:50;;;;;;;7.10;5.05;;;18.70;72.30;;;;;;4981197;28;95869;-53
2021/11/11 00:25:24;;;;;;;9.05;5.57;;;18.90;70.20;;;;;;4979022;28;96569;-52
2021/11/11 00:27:55;;;;;;;8.35;4.85;;;18.90;72.00;;;;;;4981376;28;95781;-61
2021/11/11 00:30:27;;;;;;;6.53;4.45;;;19.00;72.00;;;;;;4989457;28;96224;-56
2021/11/11 00:33:02;;;;;;;6.68;4.78;;;19.00;71.90;;;;;;4980495;28;96468;-62
2021/11/11 00:35:33;;;;;;;6.55;4.25;;;19.10;71.90;;;;;;4979755;28;96065;-62
2021/11/11 00:38:04;;;;;;;7.68;3.97;;;19.10;71.70;;;;;;4969684;28;96310;-64
2021/11/11 00:40:35;;;;;;;;;;;19.20;71.70;;;;;;4976961;28;95926;-61
2021/11/11 00:43:06;;;;;;;5.88;3.42;;;19.30;71.70;;;;;;4982490;28;95804;-64
2021/11/11 00:45:38;;;;;;;4.90;3.50;;;19.20;71.50;;;;;;4978407;28;95630;-63
2021/11/11 00:48:09;;;;;;;5.75;3.58;;;19.40;71.60;;;;;;4979281;28;95930;-62
2021/11/11 00:50:41;;;;;;;4.63;3.13;;;19.40;71.50;;;;;;4981173;28;95644;-61
2021/11/11 00:53:11;;;;;;;;;;;19.40;71.50;;;;;;4981321;28;97383;-56
2021/11/11 00:55:41;;;;;;;5.63;3.53;;;19.50;71.40;;;;;;4983028;28;97946;-53
2021/11/11 00:58:18;;;;;;;5.15;3.45;;;19.60;71.40;;;;;;4980287;28;95789;-64
2021/11/11 01:00:48;;;;;;;4.60;3.65;;;19.50;71.30;;;;;;4979335;28;95715;-54
2021/11/11 01:03:21;;;;;;;4.30;3.07;;;19.60;71.30;;;;;;4981408;28;96101;-59
2021/11/11 01:05:51;;;;;;;4.75;2.95;;;19.70;71.80;;;;;;4982561;28;95656;-61
2021/11/11 01:08:23;;;;;;;5.63;3.40;;;19.70;71.20;;;;;;4979944;28;96136;-63
2021/11/11 01:10:53;;;;;;;3.45;2.92;;;19.80;71.20;;;;;;4980857;28;97741;-64
2021/11/11 01:13:25;;;;;;;4.35;2.50;;;19.80;71.10;;;;;;4980979;28;96356;-63
2021/11/11 01:15:57;;;;;;;3.72;2.40;;;19.80;69.40;;;;;;4981997;28;96522;-63
2021/11/11 01:18:28;;;;;;;3.67;1.95;;;19.80;68.90;;;;;;4983447;28;95812;-63
2021/11/11 01:20:59;;;;;;;4.43;2.33;;;19.70;68.60;;;;;;4983831;28;95606;-63
2021/11/11 01:23:31;;;;;;;4.47;2.20;;;19.60;68.40;;;;;;4981544;28;95890;-64
2021/11/11 01:26:04;;;;;;;3.20;2.08;;;19.50;68.20;;;;;;4984669;28;95691;-64
2021/11/11 01:28:38;;;;;;;4.22;2.15;;;19.50;68.10;;;;;;4985010;28;95726;-65
2021/11/11 01:31:12;;;;;;;4.68;1.98;;;19.50;68.10;;;;;;4982911;28;96356;-64
2021/11/11 01:33:47;;;;;;;4.00;1.95;;;19.40;68.00;;;;;;4985511;28;97737;-63
2021/11/11 01:36:18;;;;;;;7.85;2.47;;;19.40;68.10;;;;;;4981192;28;97519;-63
2021/11/11 01:38:53;;;;;;;6.50;2.50;;;19.40;68.10;;;;;;4967127;28;97319;-55
2021/11/11 01:41:34;;;;;;;3.42;1.70;;;19.40;68.10;;;;;;4996977;28;96097;-57
2021/11/11 01:44:07;;;;;;;3.25;2.22;;;19.30;68.00;;;;;;4981738;28;96529;-64
2021/11/11 01:46:39;;;;;;;3.15;1.92;;;19.40;66.20;;;;;;4985311;28;96029;-63
2021/11/11 01:49:13;;;;;;;4.75;1.88;;;19.30;68.40;;;;;;4986864;28;96354;-64
2021/11/11 01:51:49;;;;;;;4.45;1.73;;;19.40;68.70;;;;;;5000646;28;95371;-64
2021/11/11 01:54:24;;;;;;;1.95;1.27;;;19.60;68.70;;;;;;4985297;28;96240;-63
2021/11/11 01:56:58;;;;;;;2.30;1.48;;;19.70;68.70;;;;;;4976790;28;98478;-51
2021/11/11 01:59:31;;;;;;;2.10;1.77;;;19.70;68.60;;;;;;4990769;28;96035;-57
2021/11/11 02:02:05;;;;;;;2.90;1.30;;;19.80;68.70;;;;;;4997666;28;95993;-55
2021/11/11 02:04:42;;;;;;;3.70;1.80;;;19.90;68.70;;;;;;4982914;28;98490;-63
2021/11/11 02:07:12;;;;;;;3.45;1.38;;;20.00;68.70;;;;;;4982442;28;97383;-58
2021/11/11 02:09:52;;;;;;;3.95;1.80;;;20.10;68.80;;;;;;4991500;28;96011;-58
2021/11/11 02:12:32;;;;;;;3.27;1.50;;;20.20;68.80;;;;;;4982692;28;96445;-64
2021/11/11 02:15:06;;;;;;;2.38;1.33;;;20.20;68.80;;;;;;4990780;28;97021;-64
2021/11/11 02:17:38;;;;;;;2.20;1.30;;;20.30;68.90;;;;;;5014980;27;96098;-65
2021/11/11 02:20:22;;;;;;;3.70;1.60;;;20.40;68.80;;;;;;4983931;28;95424;-65
2021/11/11 02:23:19;;;;;;;1.60;1.50;;;20.40;68.80;;;;;;4978695;28;96018;-66
2021/11/11 02:26:24;;;;;;;4.07;1.42;;;20.50;68.70;;;;;;4973963;28;96744;-60
2021/11/11 02:29:14;;;;;;;2.03;1.45;;;20.60;68.70;;;;;;4999240;28;96029;-64
2021/11/11 02:31:44;;;;;;;;;;;20.70;68.80;;;;;;4983364;28;96085;-60
2021/11/11 02:34:23;;;;;;;7.32;1.77;;;20.80;68.70;;;;;;4983827;28;95814;-64
2021/11/11 02:37:04;;;;;;;3.60;1.70;;;20.70;67.30;;;;;;4984077;28;96092;-55
2021/11/11 02:40:00;;;;;;;3.00;1.25;;;20.70;66.60;;;;;;4980332;28;96406;-57
2021/11/11 02:42:37;;;;;;;1.48;1.38;;;20.60;66.50;;;;;;4997307;28;96043;-65
2021/11/11 02:45:18;;;;;;;2.50;1.35;;;20.50;66.40;;;;;;4979625;28;95459;-59
2021/11/11 02:47:53;;;;;;;3.38;1.77;;;20.50;66.20;;;;;;4979809;28;95871;-55
2021/11/11 02:50:28;;;;;;;2.95;1.65;;;20.50;66.10;;;;;;4962601;28;95998;-57
2021/11/11 02:53:01;;;;;;;2.60;1.58;;;20.40;66.00;;;;;;4979526;28;96044;-64
2021/11/11 02:55:32;;;;;;;2.55;1.60;;;20.40;66.00;;;;;;5010152;27;96190;-55
2021/11/11 02:58:05;;;;;;;2.58;1.27;;;20.30;65.90;;;;;;4980367;28;96666;-56
2021/11/11 03:00:47;;;;;;;2.92;1.45;;;20.30;65.90;;;;;;4981396;28;96270;-60
2021/11/11 03:03:19;;;;;;;3.25;1.38;;;20.30;65.90;;;;;;4995288;28;95813;-55
2021/11/11 03:05:51;;;;;;;2.50;1.20;;;20.20;65.90;;;;;;5010475;27;96450;-57
2021/11/11 03:08:23;;;;;;;2.75;1.35;;;20.20;65.90;;;;;;5008183;27;96509;-57
2021/11/11 03:10:58;;;;;;;2.53;1.35;;;20.20;65.90;;;;;;4962917;28;97713;-55
2021/11/11 03:13:37;;;;;;;7.15;2.10;;;20.20;65.80;;;;;;4991377;28;95873;-65
2021/11/11 03:16:10;;;;;;;3.75;1.50;;;20.20;65.80;;;;;;4980600;28;95723;-55
2021/11/11 03:18:42;;;;;;;3.03;1.73;;;20.20;65.70;;;;;;4979173;28;96859;-58
2021/11/11 03:21:14;;;;;;;5.38;1.83;;;20.20;66.00;;;;;;4971206;28;97930;-56
2021/11/11 03:23:45;;;;;;;3.88;1.60;;;20.10;63.30;;;;;;4996607;28;96718;-62
2021/11/11 03:26:19;;;;;;;5.53;2.65;;;20.10;62.20;;;;;;4987941;28;95979;-60
2021/11/11 03:28:50;;;;;;;3.42;1.48;;;19.90;60.80;;;;;;5016118;27;98087;-61
2021/11/11 03:31:31;;;;;;;5.27;2.00;;;19.80;62.90;;;;;;4982292;28;96116;-60
2021/11/11 03:34:02;;;;;;;3.97;1.58;;;19.80;60.20;;;;;;5014105;27;96214;-61
2021/11/11 03:36:34;;;;;;;5.78;1.73;;;19.90;62.50;;;;;;4979489;28;97143;-58
2021/11/11 03:39:07;;;;;;;6.47;1.50;;;19.70;56.10;;;;;;4984859;28;96856;-61
2021/11/11 03:41:40;;;;;;;4.95;1.00;;;19.60;60.60;;;;;;5015106;27;97297;-62
2021/11/11 03:44:15;;;;;;;5.68;1.80;;;19.60;59.70;;;;;;4981603;28;95719;-63
2021/11/11 03:46:49;;;;;;;7.40;1.60;;;19.60;60.90;;;;;;4981813;28;96082;-67
2021/11/11 03:49:20;;;;;;;3.88;1.20;;;19.80;61.20;;;;;;4982374;28;95914;-63
2021/11/11 03:51:51;;;;;;;7.78;1.42;;;20.00;59.80;;;;;;4982877;28;96501;-64
2021/11/11 03:54:25;;;;;;;4.63;1.27;;;19.90;59.80;;;;;;4999030;28;97365;-64
2021/11/11 03:56:58;;;;;;;4.28;1.60;;;20.00;60.10;;;;;;4982319;28;96123;-61
2021/11/11 03:59:30;;;;;;;2.60;1.23;;;20.10;61.40;;;;;;5016823;27;96587;-62
2021/11/11 04:02:01;;;;;;;2.63;1.30;;;20.10;58.50;;;;;;4981784;28;95900;-59
2021/11/11 04:04:31;;;;;;;7.20;1.98;;;20.20;60.00;;;;;;4998541;28;95399;-62
2021/11/11 04:07:02;;;;;;;7.45;1.23;;;20.10;58.60;;;;;;4982159;28;96478;-66
2021/11/11 04:09:34;;;;;;;4.65;1.48;;;19.90;58.60;;;;;;4982503;28;97867;-62
2021/11/11 04:12:06;;;;;;;4.88;1.45;;;19.90;59.50;;;;;;4983342;28;95768;-65
2021/11/11 04:14:38;;;;;;;3.13;1.30;;;20.10;60.40;;;;;;4979549;28;95740;-66
2021/11/11 04:17:09;;;;;;;;;;;20.10;60.00;;;;;;4995581;28;95576;-61
2021/11/11 04:19:40;;;;;;;3.35;1.17;;;20.20;60.30;;;;;;5015607;27;96360;-67
2021/11/11 04:22:11;;;;;;;;;;;20.20;58.50;;;;;;4980593;28;97779;-62
2021/11/11 04:24:47;;;;;;;5.50;1.17;;;20.10;58.50;;;;;;4996825;28;97088;-61
2021/11/11 04:28:03;;;;;;;5.88;1.40;;;20.10;58.80;;;;;;4996213;28;95992;-61
2021/11/11 04:30:28;;;;;;;1.85;1.05;;;20.00;59.00;;;;;;4978655;28;96362;-62
2021/11/11 04:33:03;;;;;;;8.15;2.03;;;20.00;58.70;;;;;;4993186;28;95692;-62
2021/11/11 04:35:34;;;;;;;7.28;1.80;;;20.00;59.60;;;;;;4976118;28;96130;-62
2021/11/11 04:41:07;;;;;;;4.68;1.40;;;19.90;58.90;;;;;;4985241;28;96158;-62
2021/11/11 04:46:35;;;;;;;4.20;1.23;;;20.00;58.70;;;;;;4988396;28;96034;-63
2021/11/11 04:50:02;;;;;;;5.53;1.17;;;19.70;58.40;;;;;;4997698;28;96028;-61
2021/11/11 04:52:18;;;;;;;6.00;1.40;;;19.70;59.00;;;;;;4979747;28;98560;-63
2021/11/11 05:03:44;;;;;;;7.18;1.60;;;19.70;58.40;;;;;;4969986;28;98676;-62
2021/11/11 05:06:17;;;;;;;4.30;1.60;;;19.80;59.80;;;;;;5000117;28;97852;-61
2021/11/11 05:08:50;;;;;;;7.68;1.88;;;19.80;58.80;;;;;;4984183;28;95790;-62
2021/11/11 05:11:21;;;;;;;5.38;1.10;;;19.70;57.80;;;;;;5001243;28;96416;-62
2021/11/11 05:13:53;;;;;;;5.30;1.52;;;19.60;58.10;;;;;;4999289;28;96718;-61
2021/11/11 05:16:25;;;;;;;4.43;1.20;;;19.50;58.00;;;;;;4983154;28;98157;-61
2021/11/11 05:18:56;;;;;;;4.22;1.40;;;19.60;59.60;;;;;;4981720;28;95723;-61
2021/11/11 05:21:29;;;;;;;9.18;2.28;;;19.60;58.90;;;;;;4982293;28;95807;-63
2021/11/11 05:24:01;;;;;;;10.52;2.10;;;19.60;59.00;;;;;;4999857;28;96012;-61
2021/11/11 05:26:34;;;;;;;3.65;1.55;;;19.70;58.50;;;;;;5000490;28;97855;-62
2021/11/11 05:29:05;;;;;;;;;;;19.60;58.10;;;;;;4985508;28;96113;-64
2021/11/11 05:31:39;;;;;;;7.18;1.83;;;19.70;56.90;;;;;;5007293;28;96773;-62
2021/11/11 05:34:11;;;;;;;9.10;1.65;;;19.50;57.60;;;;;;4981877;28;98419;-62
2021/11/11 05:36:42;;;;;;;6.05;1.40;;;19.50;57.90;;;;;;4994849;28;96000;-62
2021/11/11 05:39:13;;;;;;;;;;;19.40;57.80;;;;;;4989414;28;96422;-61
2021/11/11 05:41:44;;;;;;;3.60;1.20;;;19.40;57.70;;;;;;4985614;28;96763;-63
2021/11/11 05:44:16;;;;;;;3.85;1.23;;;19.30;57.40;;;;;;4982131;28;96420;-61
2021/11/11 05:46:47;;;;;;;5.40;1.02;;;19.20;57.70;;;;;;5016210;27;95996;-62
2021/11/11 05:49:16;;;;;;;4.37;1.30;;;19.10;57.90;;;;;;5018088;27;95606;-62
2021/11/11 05:51:48;;;;;;;6.55;1.55;;;19.10;58.10;;;;;;4984226;28;96294;-62
2021/11/11 05:54:20;;;;;;;3.22;1.35;;;19.20;58.60;;;;;;4997067;28;98230;-62
2021/11/11 05:56:50;;;;;;;3.40;0.82;;;19.10;57.70;;;;;;5001269;28;98076;-62
2021/11/11 05:59:20;;;;;;;3.13;1.45;;;19.10;58.40;;;;;;4990347;28;96009;-61
2021/11/11 06:01:50;;;;;;;4.25;1.83;;;19.00;58.60;;;;;;4991753;28;95971;-63
2021/11/11 06:04:24;;;;;;;4.78;1.00;;;19.00;58.20;;;;;;5016089;27;96830;-65
2021/11/11 06:06:59;;;;;;;8.65;1.48;;;18.80;58.50;;;;;;4982388;28;95935;-61
2021/11/11 06:09:30;;;;;;;5.88;1.13;;;18.80;58.90;;;;;;4983037;28;95823;-59
2021/11/11 06:12:01;;;;;;;3.45;1.02;;;18.80;58.90;;;;;;4982696;28;96627;-63
2021/11/11 06:14:32;;;;;;;7.78;1.75;;;18.80;59.40;;;;;;4984359;28;96259;-62
2021/11/11 06:17:07;;;;;;;4.38;1.10;;;18.70;59.20;;;;;;4983164;28;95803;-62
2021/11/11 06:19:42;;;;;;;6.82;1.40;;;18.70;59.30;;;;;;4989139;28;95743;-63
2021/11/11 06:22:14;;;;;;;4.75;1.35;;;18.70;58.50;;;;;;4999511;28;96003;-62
2021/11/11 06:24:46;;;;;;;4.90;1.05;;;18.60;58.40;;;;;;4998075;28;98341;-61
2021/11/11 06:27:18;;;;;;;3.50;1.00;;;18.60;58.40;;;;;;4990106;28;96259;-63
2021/11/11 06:29:49;;;;;;;3.80;0.90;;;18.50;58.50;;;;;;4998342;28;95749;-61
2021/11/11 06:32:21;;;;;;;3.70;0.75;;;18.40;58.50;;;;;;4980701;28;95812;-59
2021/11/11 06:35:16;;;;;;;6.38;1.38;;;18.40;59.70;;;;;;4995721;28;96787;-62
2021/11/11 06:37:46;;;;;;;3.35;0.98;;;18.40;59.50;;;;;;4972210;28;97301;-68
2021/11/11 06:40:17;;;;;;;3.80;0.90;;;18.40;59.30;;;;;;4974011;28;96076;-62
2021/11/11 06:42:49;;;;;;;5.75;1.23;;;18.40;59.50;;;;;;4979816;28;98317;-62
2021/11/11 06:45:21;;;;;;;9.13;1.58;;;18.40;59.30;;;;;;4997597;28;98588;-63
2021/11/11 06:47:55;;;;;;;8.30;1.90;;;18.30;58.70;;;;;;4985015;28;95597;-63
2021/11/11 06:50:26;;;;;;;5.75;0.95;;;18.20;59.00;;;;;;4990763;28;95739;-61
2021/11/11 06:52:58;;;;;;;1.90;1.02;;;18.10;57.00;;;;;;4984099;28;96124;-60
2021/11/11 06:55:29;;;;;;;3.42;1.20;;;18.10;60.00;;;;;;4984237;28;95974;-62
2021/11/11 06:57:59;;;;;;;6.70;1.42;;;18.10;58.80;;;;;;4984956;28;96768;-62
2021/11/11 07:00:29;;;;;;;5.32;1.02;;;18.20;61.90;;;;;;4986021;28;96793;-63
2021/11/11 07:03:00;;;;;;;2.40;1.23;;;18.20;58.70;;;;;;4998369;28;96271;-62
2021/11/11 07:05:31;;;;;;;6.78;1.40;;;18.10;59.80;;;;;;5016655;27;98566;-62
2021/11/11 07:08:08;;;;;;;4.10;0.98;;;18.10;59.00;;;;;;4986413;28;96511;-62
2021/11/11 07:10:40;;;;;;;4.25;1.42;;;17.90;57.90;;;;;;4985703;28;95855;-61
2021/11/11 07:13:11;;;;;;;3.85;1.48;;;17.70;58.40;;;;;;4984111;28;96159;-63
2021/11/11 07:15:42;;;;;;;4.70;1.02;;;17.60;57.60;;;;;;4984136;28;96228;-61
2021/11/11 07:18:15;;;;;;;9.20;1.83;;;17.50;58.10;;;;;;5014833;27;97500;-60
2021/11/11 07:20:49;;;;;;;4.28;1.10;;;17.50;58.50;;;;;;4997511;28;96003;-62
2021/11/11 07:23:23;;;;;;;3.65;1.15;;;17.40;58.70;;;;;;4984267;28;95826;-63
2021/11/11 07:25:56;;;;;;;4.97;1.00;;;17.40;58.50;;;;;;4986563;28;95935;-62
2021/11/11 07:28:27;;;;;;;4.15;1.20;;;17.30;59.00;;;;;;4996558;28;97364;-61
2021/11/11 07:30:57;;;;;;;;;;;17.40;59.20;;;;;;4982994;28;95984;-58
2021/11/11 07:33:29;;;;;;;3.95;1.42;;;17.40;58.90;;;;;;4997833;28;96674;-61
2021/11/11 07:36:03;;;;;;;4.55;1.38;;;17.30;58.70;;;;;;4982719;28;95888;-62
2021/11/11 07:38:35;;;;;;;3.90;1.10;;;17.20;59.20;;;;;;4974752;28;96035;-61
2021/11/11 07:41:07;;;;;;;4.68;1.25;;;17.20;59.40;;;;;;4980223;28;96302;-60
2021/11/11 07:43:38;;;;;;;;;;;17.10;59.40;;;;;;4982943;28;96025;-62
2021/11/11 07:46:08;;;;;;;;;;;17.00;60.20;;;;;;4987284;28;96261;-60
2021/11/11 07:48:39;;;;;;;;;;;17.00;59.60;;;;;;4982678;28;96758;-63
2021/11/11 07:51:09;;;;;;;;;;;16.90;60.00;;;;;;4983975;28;96315;-62
2021/11/11 07:53:39;;;;;;;;;;;16.80;60.00;;;;;;4983412;28;95405;-60
2021/11/11 07:56:09;;;;;;;;;;;16.70;60.30;;;;;;4984911;28;96402;-61
2021/11/11 07:58:39;;;;;;;;;;;16.70;61.50;;;;;;4983081;28;95820;-60
2021/11/11 08:01:10;;;;;;;;;;;16.70;61.20;;;;;;4984290;28;96330;-61
2021/11/11 08:03:40;;;;;;;;;;;16.70;61.50;;;;;;4986117;28;95836;-61
2021/11/11 08:06:10;;;;;;;;;;;16.70;61.30;;;;;;4996892;28;96335;-61
2021/11/11 08:08:40;;;;;;;;;;;16.60;61.50;;;;;;4984243;28;97129;-62
2021/11/11 08:11:12;;;;;;;;;;;16.70;62.00;;;;;;4983837;28;96201;-63
2021/11/11 08:13:43;;;;;;;;;;;16.60;62.10;;;;;;4983129;28;95690;-62
2021/11/11 08:16:14;;;;;;;;;;;16.60;62.40;;;;;;4981444;28;95852;-62
2021/11/11 08:18:45;;;;;;;;;;;16.60;62.80;;;;;;4981690;28;96317;-61
2021/11/11 08:21:17;;;;;;;;;;;16.50;62.90;;;;;;4984456;28;95312;-61
2021/11/11 08:23:48;;;;;;;;;;;16.40;63.30;;;;;;4985408;28;95878;-60
2021/11/11 08:26:20;;;;;;;;;;;16.40;62.60;;;;;;4998394;28;96164;-62
2021/11/11 08:28:51;;;;;;;;;;;16.30;63.20;;;;;;4982816;28;96107;-61
2021/11/11 08:31:22;;;;;;;;;;;16.20;63.70;;;;;;4984118;28;97638;-61
2021/11/11 08:33:54;;;;;;;;;;;16.20;63.40;;;;;;4989174;28;96176;-62
2021/11/11 08:36:26;;;;;;;;;;;16.20;63.80;;;;;;4997170;28;95923;-62
2021/11/11 08:38:59;;;;;;;;;;;16.10;63.40;;;;;;4971990;28;95973;-62
2021/11/11 08:41:31;;;;;;;;;;;16.10;61.90;;;;;;5015827;27;96612;-62
2021/11/11 08:44:05;;;;;;;;;;;16.10;64.00;;;;;;4982396;28;96567;-61
2021/11/11 08:46:35;;;;;;;;;;;16.10;63.40;;;;;;4982404;28;98626;-62
2021/11/11 08:49:05;;;;;;;;;;;16.00;64.00;;;;;;4997568;28;97118;-62
2021/11/11 08:51:36;;;;;;;;;;;15.90;64.20;;;;;;4987104;28;95966;-62
2021/11/11 08:54:06;;;;;;;;;;;15.90;64.30;;;;;;4987834;28;95256;-62
2021/11/11 08:56:38;;;;;;;;;;;15.90;63.90;;;;;;4990509;28;95773;-63
2021/11/11 08:59:08;;;;;;;;;;;15.80;64.20;;;;;;4986144;28;96182;-63
2021/11/11 09:01:38;;;;;;;;;;;15.80;64.10;;;;;;5003809;28;96103;-59
2021/11/11 09:04:08;;;;;;;;;;;15.70;62.10;;;;;;4990836;28;95861;-59
2021/11/11 09:06:40;;;;;;;;;;;15.70;64.40;;;;;;4969494;28;98005;-61
2021/11/11 09:09:12;;;;;;;;;;;15.60;64.30;;;;;;4983886;28;97760;-61
2021/11/11 09:11:43;;;;;;;;;;;15.60;64.30;;;;;;4983468;28;96166;-60
2021/11/11 09:14:14;;;;;;;;;;;15.50;64.40;;;;;;4982846;28;96932;-61
2021/11/11 09:16:45;;;;;;;;;;;15.40;64.40;;;;;;4988702;28;95837;-61
2021/11/11 09:19:16;;;;;;;;;;;15.50;65.10;;;;;;4980340;28;95363;-61
2021/11/11 09:23:10;;;;;;;80.03;39.13;;;15.40;64.80;;;;;;5022220;27;95843;-55
2021/11/11 09:25:42;;;;;;;62.10;33.53;;;15.80;68.30;;;;;;5001876;28;97404;-52
2021/11/11 09:28:15;;;;;;;63.30;32.42;;;16.20;67.20;;;;;;4998772;28;96024;-52
2021/11/11 09:30:46;;;;;;;59.00;26.77;;;16.50;66.70;;;;;;4985603;27;97077;-53
2021/11/11 09:33:17;;;;;;;47.28;25.23;;;16.70;66.40;;;;;;4982560;28;95802;-52
2021/11/11 09:35:52;;;;;;;42.95;23.65;;;16.90;66.20;;;;;;4984874;28;95305;-52
2021/11/11 09:38:27;;;;;;;43.80;22.75;;;17.00;66.00;;;;;;4979526;28;95973;-52
2021/11/11 09:40:59;;;;;;;43.88;21.88;;;17.10;66.10;;;;;;4986907;28;96405;-51
2021/11/11 09:43:39;;;;;;;48.55;22.42;;;17.10;65.90;;;;;;4993793;28;95788;-55
2021/11/11 09:46:13;;;;;;;40.80;21.38;;;17.20;65.90;;;;;;4990238;28;95791;-53
2021/11/11 09:48:44;;;;;;;47.72;23.17;;;17.20;65.80;;;;;;4993647;28;95777;-56
2021/11/11 09:51:18;;;;;;;44.35;21.20;;;17.30;65.80;;;;;;4985241;28;96029;-55
2021/11/11 09:59:38;;;;;;;40.80;18.77;;;17.40;65.70;;;;;;4992350;28;97295;-59
2021/11/11 10:02:10;;;;;;;43.95;17.95;;;17.40;65.90;;;;;;4987910;28;96534;-59
2021/11/11 10:04:41;;;;;;;37.78;18.60;;;17.40;66.00;;;;;;4987012;28;95922;-58
2021/11/11 10:07:11;;;;;;;36.17;18.60;;;17.40;66.20;;;;;;4985474;28;95834;-57
2021/11/11 10:09:44;;;;;;;36.78;18.52;;;17.40;66.20;;;;;;4987208;28;95826;-58
2021/11/11 10:12:21;;;;;;;32.40;17.58;;;17.50;66.30;;;;;;4984904;28;97367;-58
2021/11/11 10:15:08;;;;;;;36.75;17.52;;;17.50;66.40;;;;;;4989882;28;96313;-58
2021/11/11 10:17:45;;;;;;;37.25;18.63;;;17.50;66.50;;;;;;4985377;28;95874;-56
2021/11/11 10:20:15;;;;;;;35.13;18.67;;;17.50;66.40;;;;;;4996043;28;95868;-55
2021/11/11 10:22:47;;;;;;;34.28;17.42;;;17.50;66.40;;;;;;4993115;28;96982;-53
2021/11/11 10:25:18;;;;;;;;;;;17.50;66.30;;;;;;4995122;28;95684;-59
2021/11/11 10:27:58;;;;;;;;;;;17.50;66.30;;;;;;4992447;28;95163;-56
2021/11/11 10:30:30;;;;;;;36.17;16.63;;;17.60;66.20;;;;;;4990946;28;96084;-54
2021/11/11 10:33:11;;;;;;;30.95;15.90;;;17.60;66.20;;;;;;4979157;28;97227;-56
2021/11/11 10:35:48;;;;;;;30.98;16.15;;;17.60;66.10;;;;;;4972928;28;99607;-56
2021/11/11 10:38:23;;;;;;;31.98;17.08;;;17.70;66.10;;;;;;4971838;28;96193;-55
2021/11/11 10:40:57;;;;;;;31.10;15.80;;;17.60;66.00;;;;;;4971990;28;96071;-53
2021/11/11 10:43:31;;;;;;;35.38;16.98;;;17.60;65.90;;;;;;4969240;28;96884;-55
2021/11/11 10:46:44;;;;;;;28.77;15.05;;;17.60;65.90;;;;;;4978302;28;95809;-54
2021/11/11 10:49:32;;;;;;;31.92;15.23;;;17.70;65.80;;;;;;4975006;28;95983;-53
2021/11/11 10:52:25;;;;;;;30.65;16.58;;;17.60;65.70;;;;;;4972651;28;95567;-55
2021/11/11 10:55:10;;;;;;;27.38;14.20;;;17.70;65.70;;;;;;4971902;28;96327;-54
2021/11/11 10:57:44;;;;;;;31.65;16.02;;;17.70;65.70;;;;;;4969691;28;95882;-56
2021/11/11 11:00:27;;;;;;;29.17;14.43;;;17.70;65.50;;;;;;4975491;28;95944;-56
2021/11/11 11:03:17;;;;;;;27.38;12.95;;;17.70;63.80;;;;;;5009791;27;95544;-56
2021/11/11 11:05:55;;;;;;;26.83;13.30;;;17.70;65.50;;;;;;4970738;28;96057;-55
2021/11/11 11:08:28;;;;;;;27.98;13.82;;;17.70;65.40;;;;;;4975131;28;97555;-55
2021/11/11 11:11:36;;;;;;;30.42;14.90;;;17.70;65.40;;;;;;4979100;28;95824;-54
2021/11/11 11:14:22;;;;;;;28.80;14.07;;;17.70;65.30;;;;;;4965941;28;95666;-56
2021/11/11 11:16:54;;;;;;;24.80;13.18;;;17.70;65.30;;;;;;4974567;28;96974;-53
2021/11/11 11:19:27;;;;;;;23.60;13.18;;;17.70;65.30;;;;;;4968570;28;95624;-54
2021/11/11 11:21:58;;;;;;;22.27;11.98;;;17.70;65.30;;;;;;4974992;28;95928;-55
2021/11/11 11:24:32;;;;;;;23.58;13.25;;;17.70;65.20;;;;;;4983700;28;96262;-53
2021/11/11 11:27:05;;;;;;;23.35;12.02;;;17.70;65.20;;;;;;4974611;28;98714;-52
2021/11/11 11:32:30;;;;;;;24.00;12.75;;;17.70;65.10;;;;;;4975351;28;95361;-56
2021/11/11 11:35:05;;;;;;;22.40;11.63;;;17.70;65.10;;;;;;4969348;28;95919;-55
2021/11/11 11:37:35;;;;;;;23.40;11.75;;;17.70;65.10;;;;;;4974825;28;96370;-57
2021/11/11 11:40:16;;;;;;;20.42;11.57;;;17.70;65.10;;;;;;4991239;28;97301;-53
2021/11/11 11:42:51;;;;;;;21.40;11.40;;;17.70;65.10;;;;;;4976543;28;95513;-52
2021/11/11 11:45:24;;;;;;;22.17;11.98;;;17.70;65.10;;;;;;4974828;28;95767;-56
2021/11/11 11:48:06;;;;;;;18.98;11.07;;;17.70;65.00;;;;;;4972486;28;96149;-54
2021/11/11 11:50:48;;;;;;;23.55;12.70;;;17.70;65.00;;;;;;4969953;28;95978;-51
2021/11/11 11:53:24;;;;;;;19.38;9.88;;;17.70;65.10;;;;;;4976168;28;96952;-55
2021/11/11 11:56:05;;;;;;;18.00;9.82;;;17.70;65.50;;;;;;4994454;28;96881;-50
2021/11/11 11:58:50;;;;;;;15.13;8.25;;;17.80;65.70;;;;;;4978470;28;96260;-53
2021/11/11 12:01:31;;;;;;;15.85;8.57;;;17.90;65.90;;;;;;4983129;28;95955;-52
2021/11/11 12:04:53;;;;;;;14.70;8.80;;;18.00;65.90;;;;;;4976361;28;95827;-52
2021/11/11 12:07:53;;;;;;;14.85;8.23;;;18.00;65.80;;;;;;4968045;28;96015;-54
2021/11/11 12:15:58;;;;;;;13.57;7.32;;;18.10;66.20;;;;;;4973513;28;96331;-54
2021/11/11 12:34:29;;;;;;;13.45;6.38;;;18.20;66.60;;;;;;4987589;28;96373;-58
2021/11/11 12:40:13;;;;;;;11.80;6.32;;;18.60;66.90;;;;;;4976573;28;95913;-56
2021/11/11 12:42:56;;;;;;;11.52;5.88;;;18.80;66.60;;;;;;4975766;28;95666;-53
2021/11/11 12:45:30;;;;;;;12.50;5.53;;;19.00;66.30;;;;;;4994101;28;97997;-56
2021/11/11 12:48:04;;;;;;;9.50;5.20;;;19.10;66.10;;;;;;4980453;28;95657;-56
2021/11/11 12:50:59;;;;;;;8.60;4.95;;;19.30;65.80;;;;;;4993461;27;95940;-58
2021/11/11 12:53:52;;;;;;;8.73;5.05;;;19.40;65.30;;;;;;4979058;28;95827;-58
2021/11/11 12:56:28;;;;;;;7.40;4.72;;;19.50;65.20;;;;;;4976193;28;96527;-58
2021/11/11 12:59:06;;;;;;;8.77;4.43;;;19.60;65.40;;;;;;4980617;28;96094;-57
2021/11/11 13:01:52;;;;;;;6.63;4.10;;;19.60;65.40;;;;;;4981044;28;98118;-58
2021/11/11 13:04:26;;;;;;;7.47;4.45;;;19.80;65.20;;;;;;4971644;28;96039;-56
2021/11/11 13:07:02;;;;;;;6.78;3.88;;;19.80;65.10;;;;;;4988165;28;97848;-64
2021/11/11 13:09:38;;;;;;;6.53;4.68;;;20.00;65.10;;;;;;4982872;28;96159;-63
2021/11/11 13:12:26;;;;;;;5.57;3.60;;;20.10;64.90;;;;;;4968511;28;95295;-58
2021/11/11 13:15:20;;;;;;;6.50;3.78;;;20.20;64.70;;;;;;4973375;28;95878;-56
2021/11/11 13:17:51;;;;;;;5.32;4.03;;;20.20;64.70;;;;;;4976277;28;96201;-55
2021/11/11 13:20:36;;;;;;;5.97;3.70;;;20.30;64.60;;;;;;4969237;28;96536;-55
2021/11/11 13:23:44;;;;;;;6.95;3.42;;;20.40;63.10;;;;;;4972956;28;95696;-51
2021/11/11 13:43:47;;;;;;;6.18;3.60;;;20.60;64.00;;;;;;4964864;28;96062;-60
2021/11/11 14:01:47;;;;;;;5.40;3.22;;;20.80;63.00;;;;;;4990785;28;95931;-63
2021/11/11 16:00:35;;;;;;;4.10;1.95;;;17.90;67.60;;;;;;4983899;28;97130;-62
2021/11/11 16:20:08;;;;;;;2.20;1.60;;;17.70;68.10;;;;;;4975104;28;95389;-63
2021/11/11 16:28:07;;;;;;;3.17;1.75;;;17.60;68.50;;;;;;4984236;28;97577;-62
2021/11/11 16:30:38;;;;;;;2.53;1.95;;;17.70;66.30;;;;;;4985139;28;95728;-63
2021/11/11 16:33:09;;;;;;;4.47;1.58;;;17.60;68.70;;;;;;4970952;28;96349;-63
2021/11/11 16:35:39;;;;;;;2.13;1.33;;;17.60;68.70;;;;;;4977338;28;98074;-63
2021/11/11 16:38:12;;;;;;;3.70;1.77;;;17.60;68.80;;;;;;4970594;28;95553;-62
2021/11/11 16:40:43;;;;;;;4.25;1.75;;;17.50;68.80;;;;;;4979200;28;95815;-63
2021/11/11 16:43:14;;;;;;;2.97;1.80;;;17.50;69.00;;;;;;4978853;28;96555;-62
2021/11/11 16:45:45;;;;;;;;;;;17.50;69.00;;;;;;4976173;28;96491;-62
2021/11/11 16:48:15;;;;;;;1.60;1.20;;;17.40;69.10;;;;;;4978528;28;95754;-63
2021/11/11 16:50:47;;;;;;;3.20;1.57;;;17.40;69.20;;;;;;4978649;28;97924;-63
2021/11/11 16:53:23;;;;;;;2.92;1.65;;;17.40;69.20;;;;;;4972448;28;96572;-63
2021/11/11 16:55:55;;;;;;;2.22;1.40;;;17.40;69.30;;;;;;4981267;28;97594;-63
2021/11/11 16:58:28;;;;;;;3.85;1.85;;;17.30;70.00;;;;;;4986109;28;96463;-63
2021/11/11 17:00:58;;;;;;;2.80;1.65;;;17.30;69.40;;;;;;4973159;28;95673;-63
2021/11/11 17:03:28;;;;;;;3.08;1.50;;;17.30;69.50;;;;;;4973766;28;96210;-62
2021/11/11 17:05:59;;;;;;;2.90;1.67;;;17.30;69.60;;;;;;4976043;28;95722;-62
2021/11/11 17:08:29;;;;;;;1.65;1.30;;;17.30;69.60;;;;;;4975859;28;97128;-62
2021/11/11 17:11:00;;;;;;;2.35;1.55;;;17.20;69.60;;;;;;4979592;28;95870;-63
2021/11/11 17:13:32;;;;;;;2.95;1.70;;;17.20;69.70;;;;;;4970076;28;96362;-63
2021/11/11 17:16:04;;;;;;;2.33;1.40;;;17.20;69.70;;;;;;4970471;28;98486;-63